createdAt,value
2023-04-05T00:00:14.077Z,811.51
2023-04-05T00:01:14.073Z,811.51
2023-04-05T00:02:14.245Z,811.47
2023-04-05T00:03:14.268Z,811.48
2023-04-05T00:04:14.173Z,811.49
2023-04-05T00:05:14.095Z,811.46
2023-04-05T00:06:14.091Z,811.50
2023-04-05T00:07:14.095Z,811.49
2023-04-05T00:08:14.119Z,811.44
2023-04-05T00:09:14.103Z,811.46
2023-04-05T00:10:14.104Z,811.43
2023-04-05T00:11:14.111Z,811.46
2023-04-05T00:12:14.124Z,811.45
2023-04-05T00:13:14.130Z,811.44
2023-04-05T00:14:14.144Z,811.44
2023-04-05T00:15:14.130Z,811.44
2023-04-05T00:16:14.210Z,811.44
2023-04-05T00:17:14.134Z,811.42
2023-04-05T00:18:14.134Z,811.40
2023-04-05T00:19:14.150Z,811.46
2023-04-05T00:20:14.142Z,811.44
2023-04-05T00:21:14.149Z,811.42
2023-04-05T00:22:14.148Z,811.39
2023-04-05T00:23:14.160Z,811.36
2023-04-05T00:24:14.176Z,811.35
2023-04-05T00:25:14.171Z,811.39
2023-04-05T00:26:14.165Z,811.41
2023-04-05T00:27:14.175Z,811.38
2023-04-05T00:28:14.203Z,811.37
2023-04-05T00:29:14.181Z,811.38
2023-04-05T00:30:14.180Z,811.39
2023-04-05T00:31:14.187Z,811.39
2023-04-05T00:32:14.299Z,811.36
2023-04-05T00:33:14.201Z,811.40
2023-04-05T00:34:14.198Z,811.37
2023-04-05T00:35:14.205Z,811.36
2023-04-05T00:36:14.234Z,811.35
2023-04-05T00:37:14.208Z,811.33
2023-04-05T00:38:14.215Z,811.35
2023-04-05T00:39:14.218Z,811.33
2023-04-05T00:40:14.245Z,811.32
2023-04-05T00:41:14.245Z,811.37
2023-04-05T00:42:14.248Z,811.35
2023-04-05T00:43:14.235Z,811.32
2023-04-05T00:44:14.252Z,811.33
2023-04-05T00:45:14.245Z,811.29
2023-04-05T00:46:14.280Z,811.31
2023-04-05T00:47:14.253Z,811.29
2023-04-05T00:48:14.254Z,811.24
2023-04-05T00:49:14.252Z,811.26
2023-04-05T00:50:14.301Z,811.26
2023-04-05T00:51:14.283Z,811.28
2023-04-05T00:52:14.267Z,811.28
2023-04-05T00:53:14.276Z,811.27
2023-04-05T00:54:14.310Z,811.29
2023-04-05T00:55:14.295Z,811.24
2023-04-05T00:56:14.301Z,811.28
2023-04-05T00:57:14.291Z,811.25
2023-04-05T00:58:14.290Z,811.26
2023-04-05T00:59:14.367Z,811.25
2023-04-05T01:00:14.296Z,811.22
2023-04-05T01:01:14.351Z,811.22
2023-04-05T01:02:14.317Z,811.18
2023-04-05T01:03:14.306Z,811.19
2023-04-05T01:04:14.379Z,811.18
2023-04-05T01:05:14.311Z,811.20
2023-04-05T01:06:15.492Z,811.21
2023-04-05T01:07:14.318Z,811.20
2023-04-05T01:08:14.323Z,811.18
2023-04-05T01:09:14.327Z,811.16
2023-04-05T01:10:14.331Z,811.17
2023-04-05T01:11:14.328Z,811.17
2023-04-05T01:12:14.357Z,811.17
2023-04-05T01:13:14.341Z,811.13
2023-04-05T01:14:14.384Z,811.16
2023-04-05T01:15:14.350Z,811.13
2023-04-05T01:16:14.371Z,811.09
2023-04-05T01:17:14.349Z,811.08
2023-04-05T01:18:14.375Z,811.11
2023-04-05T01:19:14.357Z,811.09
2023-04-05T01:20:14.371Z,811.09
2023-04-05T01:21:14.365Z,811.08
2023-04-05T01:22:14.543Z,811.09
2023-04-05T01:23:14.371Z,811.05
2023-04-05T01:24:14.381Z,811.09
2023-04-05T01:25:14.377Z,811.10
2023-04-05T01:26:14.386Z,811.08
2023-04-05T01:27:14.398Z,811.07
2023-04-05T01:28:14.421Z,811.12
2023-04-05T01:29:14.402Z,811.10
2023-04-05T01:30:14.401Z,811.09
2023-04-05T01:31:14.503Z,811.10
2023-04-05T01:32:14.408Z,811.09
2023-04-05T01:33:14.413Z,811.12
2023-04-05T01:34:14.416Z,811.04
2023-04-05T01:35:14.418Z,811.10
2023-04-05T01:36:14.469Z,811.07
2023-04-05T01:37:14.440Z,811.09
2023-04-05T01:38:14.441Z,811.06
2023-04-05T01:39:14.428Z,811.03
2023-04-05T01:40:14.448Z,811.06
2023-04-05T01:41:14.441Z,811.04
2023-04-05T01:42:14.442Z,811.05
2023-04-05T01:43:14.466Z,811.07
2023-04-05T01:44:14.477Z,811.07
2023-04-05T01:45:14.453Z,811.06
2023-04-05T01:46:14.500Z,811.01
2023-04-05T01:47:14.459Z,811.03
2023-04-05T01:48:14.473Z,811.03
2023-04-05T01:49:14.480Z,811.06
2023-04-05T01:50:14.495Z,811.03
2023-04-05T01:51:14.472Z,811.07
2023-04-05T01:52:14.477Z,811.04
2023-04-05T01:53:14.483Z,811.05
2023-04-05T01:54:14.491Z,811.02
2023-04-05T01:55:14.509Z,811.01
2023-04-05T01:56:14.531Z,811.01
2023-04-05T01:57:14.500Z,811.02
2023-04-05T01:58:14.533Z,811.02
2023-04-05T01:59:14.547Z,810.99
2023-04-05T02:00:14.532Z,811.04
2023-04-05T02:01:14.552Z,811.00
2023-04-05T02:02:14.535Z,810.97
2023-04-05T02:03:14.577Z,810.96
2023-04-05T02:04:14.524Z,810.97
2023-04-05T02:05:14.520Z,810.98
2023-04-05T02:06:14.526Z,810.94
2023-04-05T02:07:14.526Z,810.96
2023-04-05T02:08:14.538Z,810.97
2023-04-05T02:09:14.537Z,810.96
2023-04-05T02:10:14.565Z,810.96
2023-04-05T02:11:14.560Z,810.96
2023-04-05T02:12:14.549Z,810.94
2023-04-05T02:13:14.584Z,810.90
2023-04-05T02:14:14.559Z,810.94
2023-04-05T02:15:14.562Z,810.90
2023-04-05T02:16:14.618Z,810.92
2023-04-05T02:17:14.580Z,810.98
2023-04-05T02:18:14.570Z,810.96
2023-04-05T02:19:14.570Z,810.94
2023-04-05T02:20:14.664Z,811.00
2023-04-05T02:21:14.579Z,810.95
2023-04-05T02:22:14.591Z,810.95
2023-04-05T02:23:14.581Z,810.90
2023-04-05T02:24:14.588Z,810.91
2023-04-05T02:25:14.616Z,810.91
2023-04-05T02:26:14.604Z,810.89
2023-04-05T02:27:14.595Z,810.89
2023-04-05T02:28:14.600Z,810.90
2023-04-05T02:29:14.613Z,810.91
2023-04-05T02:30:14.609Z,810.89
2023-04-05T02:31:14.629Z,810.90
2023-04-05T02:32:14.641Z,810.87
2023-04-05T02:33:14.618Z,810.91
2023-04-05T02:34:14.626Z,810.88
2023-04-05T02:35:14.622Z,810.90
2023-04-05T02:36:14.628Z,810.93
2023-04-05T02:37:14.627Z,810.88
2023-04-05T02:38:14.677Z,810.92
2023-04-05T02:39:14.637Z,810.91
2023-04-05T02:40:14.638Z,810.93
2023-04-05T02:41:14.639Z,810.89
2023-04-05T02:42:14.661Z,810.89
2023-04-05T02:43:14.645Z,810.90
2023-04-05T02:44:14.654Z,810.89
2023-04-05T02:45:14.655Z,810.91
2023-04-05T02:46:14.695Z,810.90
2023-04-05T02:47:14.683Z,810.88
2023-04-05T02:48:14.774Z,810.89
2023-04-05T02:49:14.665Z,810.85
2023-04-05T02:50:14.678Z,810.84
2023-04-05T02:51:14.681Z,810.87
2023-04-05T02:52:14.673Z,810.83
2023-04-05T02:53:14.703Z,810.83
2023-04-05T02:54:14.685Z,810.86
2023-04-05T02:55:14.682Z,810.83
2023-04-05T02:56:14.692Z,810.82
2023-04-05T02:57:14.693Z,810.83
2023-04-05T02:58:14.696Z,810.85
2023-04-05T02:59:14.826Z,810.85
2023-04-05T03:00:14.732Z,810.87
2023-04-05T03:01:14.832Z,810.81
2023-04-05T03:02:14.706Z,810.82
2023-04-05T03:03:14.818Z,810.89
2023-04-05T03:04:14.744Z,810.84
2023-04-05T03:05:14.711Z,810.86
2023-04-05T03:06:14.726Z,810.84
2023-04-05T03:07:14.717Z,810.84
2023-04-05T03:08:14.732Z,810.87
2023-04-05T03:09:14.730Z,810.83
2023-04-05T03:10:14.731Z,810.85
2023-04-05T03:11:14.731Z,810.84
2023-04-05T03:12:14.745Z,810.85
2023-04-05T03:13:14.754Z,810.86
2023-04-05T03:14:14.751Z,810.87
2023-04-05T03:15:14.744Z,810.89
2023-04-05T03:16:14.781Z,810.84
2023-04-05T03:17:14.764Z,810.85
2023-04-05T03:18:14.755Z,810.86
2023-04-05T03:19:14.757Z,810.86
2023-04-05T03:20:14.784Z,810.86
2023-04-05T03:21:14.783Z,810.87
2023-04-05T03:22:14.769Z,810.86
2023-04-05T03:23:14.766Z,810.83
2023-04-05T03:24:14.784Z,810.86
2023-04-05T03:25:14.777Z,810.85
2023-04-05T03:26:14.784Z,810.77
2023-04-05T03:27:14.780Z,810.81
2023-04-05T03:28:14.788Z,810.81
2023-04-05T03:29:14.792Z,810.81
2023-04-05T03:30:14.796Z,810.83
2023-04-05T03:31:14.854Z,810.83
2023-04-05T03:32:14.800Z,810.83
2023-04-05T03:33:14.800Z,810.82
2023-04-05T03:34:14.811Z,810.84
2023-04-05T03:35:14.805Z,810.80
2023-04-05T03:36:14.832Z,810.83
2023-04-05T03:37:14.809Z,810.82
2023-04-05T03:38:14.819Z,810.83
2023-04-05T03:39:14.819Z,810.83
2023-04-05T03:40:14.828Z,810.83
2023-04-05T03:41:14.821Z,810.84
2023-04-05T03:42:14.830Z,810.84
2023-04-05T03:43:14.830Z,810.82
2023-04-05T03:44:14.861Z,810.84
2023-04-05T03:45:16.169Z,810.84
2023-04-05T03:46:14.856Z,810.82
2023-04-05T03:47:14.840Z,810.82
2023-04-05T03:48:14.846Z,810.85
2023-04-05T03:49:14.845Z,810.84
2023-04-05T03:50:14.852Z,810.82
2023-04-05T03:51:14.859Z,810.82
2023-04-05T03:52:14.888Z,810.81
2023-04-05T03:53:14.865Z,810.81
2023-04-05T03:54:14.861Z,810.78
2023-04-05T03:55:14.859Z,810.80
2023-04-05T03:56:14.868Z,810.73
2023-04-05T03:57:14.867Z,810.76
2023-04-05T03:58:14.875Z,810.75
2023-04-05T03:59:14.889Z,810.76
2023-04-05T04:00:14.903Z,810.77
2023-04-05T04:01:14.912Z,810.78
2023-04-05T04:02:14.910Z,810.76
2023-04-05T04:03:14.970Z,810.79
2023-04-05T04:04:14.904Z,810.82
2023-04-05T04:05:14.964Z,810.77
2023-04-05T04:06:16.403Z,810.82
2023-04-05T04:07:14.892Z,810.80
2023-04-05T04:08:14.919Z,810.78
2023-04-05T04:09:14.901Z,810.79
2023-04-05T04:10:14.905Z,810.80
2023-04-05T04:11:14.908Z,810.80
2023-04-05T04:12:14.909Z,810.79
2023-04-05T04:13:14.911Z,810.80
2023-04-05T04:14:14.914Z,810.73
2023-04-05T04:15:14.916Z,810.76
2023-04-05T04:16:14.940Z,810.78
2023-04-05T04:17:14.927Z,810.77
2023-04-05T04:18:14.928Z,810.77
2023-04-05T04:19:14.930Z,810.77
2023-04-05T04:20:14.958Z,810.75
2023-04-05T04:21:14.928Z,810.77
2023-04-05T04:22:14.938Z,810.72
2023-04-05T04:23:14.954Z,810.75
2023-04-05T04:24:14.963Z,810.73
2023-04-05T04:25:14.956Z,810.73
2023-04-05T04:26:14.968Z,810.71
2023-04-05T04:27:14.967Z,810.70
2023-04-05T04:28:14.965Z,810.72
2023-04-05T04:29:14.952Z,810.73
2023-04-05T04:30:15.118Z,810.67
2023-04-05T04:31:15.000Z,810.67
2023-04-05T04:32:14.976Z,810.69
2023-04-05T04:33:15.026Z,810.66
2023-04-05T04:34:14.979Z,810.66
2023-04-05T04:35:14.968Z,810.67
2023-04-05T04:36:14.988Z,810.66
2023-04-05T04:37:14.986Z,810.64
2023-04-05T04:38:14.980Z,810.65
2023-04-05T04:39:14.982Z,810.61
2023-04-05T04:40:15.006Z,810.64
2023-04-05T04:41:14.998Z,810.66
2023-04-05T04:42:14.995Z,810.62
2023-04-05T04:43:15.016Z,810.63
2023-04-05T04:44:15.025Z,810.68
2023-04-05T04:45:15.006Z,810.66
2023-04-05T04:46:15.327Z,810.67
2023-04-05T04:47:15.134Z,810.71
2023-04-05T04:48:15.012Z,810.69
2023-04-05T04:49:15.017Z,810.69
2023-04-05T04:50:15.020Z,810.71
2023-04-05T04:51:15.013Z,810.71
2023-04-05T04:52:15.020Z,810.74
2023-04-05T04:53:15.023Z,810.77
2023-04-05T04:54:15.026Z,810.74
2023-04-05T04:55:15.048Z,810.70
2023-04-05T04:56:15.064Z,810.73
2023-04-05T04:57:15.031Z,810.72
2023-04-05T04:58:15.046Z,810.75
2023-04-05T04:59:15.078Z,810.76
2023-04-05T05:00:15.067Z,810.76
2023-04-05T05:01:15.084Z,810.75
2023-04-05T05:02:15.042Z,810.73
2023-04-05T05:03:15.105Z,810.72
2023-04-05T05:04:15.055Z,810.73
2023-04-05T05:05:15.058Z,810.74
2023-04-05T05:06:15.056Z,810.73
2023-04-05T05:07:15.059Z,810.73
2023-04-05T05:08:15.064Z,810.72
2023-04-05T05:09:15.073Z,810.73
2023-04-05T05:10:15.071Z,810.75
2023-04-05T05:11:15.078Z,810.72
2023-04-05T05:12:15.086Z,810.73
2023-04-05T05:13:15.077Z,810.71
2023-04-05T05:14:15.074Z,810.72
2023-04-05T05:15:15.085Z,810.78
2023-04-05T05:16:15.138Z,810.75
2023-04-05T05:17:15.101Z,810.74
2023-04-05T05:18:15.082Z,810.71
2023-04-05T05:19:15.108Z,810.76
2023-04-05T05:20:15.093Z,810.83
2023-04-05T05:21:15.096Z,810.80
2023-04-05T05:22:15.113Z,810.83
2023-04-05T05:23:15.108Z,810.78
2023-04-05T05:24:15.097Z,810.78
2023-04-05T05:25:15.107Z,810.78
2023-04-05T05:26:15.101Z,810.84
2023-04-05T05:27:15.116Z,810.80
2023-04-05T05:28:15.128Z,810.84
2023-04-05T05:29:15.117Z,810.80
2023-04-05T05:30:15.114Z,810.81
2023-04-05T05:31:15.184Z,810.80
2023-04-05T05:32:15.121Z,810.84
2023-04-05T05:33:15.188Z,810.85
2023-04-05T05:34:15.123Z,810.85
2023-04-05T05:35:15.131Z,810.80
2023-04-05T05:36:15.165Z,810.84
2023-04-05T05:37:15.149Z,810.83
2023-04-05T05:38:15.126Z,810.80
2023-04-05T05:39:15.139Z,810.85
2023-04-05T05:40:15.137Z,810.83
2023-04-05T05:41:15.142Z,810.86
2023-04-05T05:42:15.143Z,810.89
2023-04-05T05:43:15.145Z,810.85
2023-04-05T05:44:15.165Z,810.87
2023-04-05T05:45:15.158Z,810.83
2023-04-05T05:46:15.178Z,810.85
2023-04-05T05:47:15.155Z,810.84
2023-04-05T05:48:15.148Z,810.88
2023-04-05T05:49:15.155Z,810.87
2023-04-05T05:50:15.154Z,810.83
2023-04-05T05:51:15.162Z,810.85
2023-04-05T05:52:15.158Z,810.85
2023-04-05T05:53:15.165Z,810.83
2023-04-05T05:54:15.161Z,810.77
2023-04-05T05:55:15.172Z,810.78
2023-04-05T05:56:15.174Z,810.75
2023-04-05T05:57:15.192Z,810.78
2023-04-05T05:58:15.192Z,810.77
2023-04-05T05:59:15.245Z,810.76
2023-04-05T06:00:15.203Z,810.76
2023-04-05T06:01:15.185Z,810.76
2023-04-05T06:02:15.184Z,810.71
2023-04-05T06:03:15.287Z,810.75
2023-04-05T06:04:15.338Z,810.67
2023-04-05T06:05:15.196Z,810.70
2023-04-05T06:06:15.224Z,810.69
2023-04-05T06:07:15.208Z,810.69
2023-04-05T06:08:15.198Z,810.70
2023-04-05T06:09:15.204Z,810.67
2023-04-05T06:10:15.201Z,810.71
2023-04-05T06:11:15.213Z,810.75
2023-04-05T06:12:15.216Z,810.77
2023-04-05T06:13:15.213Z,810.82
2023-04-05T06:14:15.222Z,810.80
2023-04-05T06:15:15.220Z,810.80
2023-04-05T06:16:15.276Z,810.84
2023-04-05T06:17:15.238Z,810.86
2023-04-05T06:18:15.221Z,810.84
2023-04-05T06:19:15.228Z,810.83
2023-04-05T06:20:15.236Z,810.87
2023-04-05T06:21:15.229Z,810.86
2023-04-05T06:22:15.228Z,810.84
2023-04-05T06:23:15.242Z,810.83
2023-04-05T06:24:15.271Z,810.86
2023-04-05T06:25:18.098Z,810.83
2023-04-05T06:26:15.237Z,810.83
2023-04-05T06:27:15.242Z,810.87
2023-04-05T06:28:15.343Z,810.85
2023-04-05T06:29:15.252Z,810.83
2023-04-05T06:30:15.247Z,810.86
2023-04-05T06:31:15.287Z,810.84
2023-04-05T06:32:15.269Z,810.85
2023-04-05T06:33:15.252Z,810.88
2023-04-05T06:34:15.252Z,810.85
2023-04-05T06:35:15.263Z,810.84
2023-04-05T06:36:15.282Z,810.84
2023-04-05T06:37:15.271Z,810.91
2023-04-05T06:38:15.295Z,810.88
2023-04-05T06:39:15.294Z,810.90
2023-04-05T06:40:15.283Z,810.88
2023-04-05T06:41:15.308Z,810.90
2023-04-05T06:42:15.418Z,810.95
2023-04-05T06:43:15.313Z,810.93
2023-04-05T06:44:15.277Z,810.92
2023-04-05T06:45:15.318Z,810.93
2023-04-05T06:46:15.382Z,810.91
2023-04-05T06:47:15.321Z,810.93
2023-04-05T06:48:15.337Z,810.96
2023-04-05T06:49:15.292Z,810.91
2023-04-05T06:50:15.288Z,810.92
2023-04-05T06:51:15.315Z,810.88
2023-04-05T06:52:15.549Z,810.89
2023-04-05T06:53:15.337Z,810.89
2023-04-05T06:54:15.295Z,810.87
2023-04-05T06:55:15.302Z,810.85
2023-04-05T06:56:15.353Z,810.81
2023-04-05T06:57:15.314Z,810.82
2023-04-05T06:58:15.338Z,810.83
2023-04-05T06:59:15.382Z,810.83
2023-04-05T07:00:15.368Z,810.84
2023-04-05T07:01:15.391Z,810.82
2023-04-05T07:02:15.353Z,810.81
2023-04-05T07:03:15.412Z,810.81
2023-04-05T07:04:15.386Z,810.78
2023-04-05T07:05:15.359Z,810.78
2023-04-05T07:06:15.393Z,810.78
2023-04-05T07:07:15.369Z,810.75
2023-04-05T07:08:15.364Z,810.73
2023-04-05T07:09:15.338Z,810.77
2023-04-05T07:10:15.330Z,810.69
2023-04-05T07:11:15.378Z,810.69
2023-04-05T07:12:15.336Z,810.75
2023-04-05T07:13:15.475Z,810.74
2023-04-05T07:14:15.374Z,810.77
2023-04-05T07:15:15.382Z,810.78
2023-04-05T07:16:15.413Z,810.78
2023-04-05T07:17:15.381Z,810.79
2023-04-05T07:18:15.381Z,810.80
2023-04-05T07:19:15.371Z,810.81
2023-04-05T07:20:15.410Z,810.83
2023-04-05T07:21:15.379Z,810.84
2023-04-05T07:22:15.356Z,810.80
2023-04-05T07:23:15.392Z,810.85
2023-04-05T07:24:15.394Z,810.85
2023-04-05T07:25:15.408Z,810.85
2023-04-05T07:26:15.366Z,810.85
2023-04-05T07:27:15.408Z,810.88
2023-04-05T07:28:15.370Z,810.86
2023-04-05T07:29:15.399Z,810.86
2023-04-05T07:30:15.377Z,810.86
2023-04-05T07:31:15.412Z,810.88
2023-04-05T07:32:15.413Z,810.92
2023-04-05T07:33:15.527Z,810.88
2023-04-05T07:34:15.422Z,810.92
2023-04-05T07:35:15.452Z,810.85
2023-04-05T07:36:15.498Z,810.89
2023-04-05T07:37:15.433Z,810.90
2023-04-05T07:38:15.422Z,810.87
2023-04-05T07:39:15.439Z,810.90
2023-04-05T07:40:15.404Z,810.91
2023-04-05T07:41:15.418Z,810.90
2023-04-05T07:42:15.430Z,810.93
2023-04-05T07:43:15.421Z,810.92
2023-04-05T07:44:15.433Z,810.94
2023-04-05T07:45:15.446Z,810.92
2023-04-05T07:46:15.479Z,810.96
2023-04-05T07:47:15.441Z,810.98
2023-04-05T07:48:15.416Z,810.96
2023-04-05T07:49:15.451Z,810.98
2023-04-05T07:50:15.702Z,810.96
2023-04-05T07:51:15.451Z,810.96
2023-04-05T07:52:15.463Z,810.94
2023-04-05T07:53:15.484Z,810.97
2023-04-05T07:54:15.445Z,810.99
2023-04-05T07:55:15.462Z,811.02
2023-04-05T07:56:15.431Z,810.99
2023-04-05T07:57:15.439Z,810.98
2023-04-05T07:58:15.447Z,810.99
2023-04-05T07:59:15.480Z,810.98
2023-04-05T08:00:15.465Z,811.03
2023-04-05T08:01:15.462Z,811.00
2023-04-05T08:02:15.494Z,811.02
2023-04-05T08:03:15.561Z,811.03
2023-04-05T08:04:15.472Z,811.02
2023-04-05T08:05:15.513Z,811.02
2023-04-05T08:06:15.481Z,811.03
2023-04-05T08:07:15.476Z,811.00
2023-04-05T08:08:15.483Z,811.01
2023-04-05T08:09:15.467Z,811.01
2023-04-05T08:10:15.490Z,810.99
2023-04-05T08:11:15.491Z,810.98
2023-04-05T08:12:15.478Z,810.98
2023-04-05T08:13:15.490Z,810.96
2023-04-05T08:14:15.499Z,810.99
2023-04-05T08:15:15.488Z,811.03
2023-04-05T08:16:15.541Z,811.01
2023-04-05T08:17:15.489Z,810.98
2023-04-05T08:18:15.500Z,811.00
2023-04-05T08:19:15.762Z,811.00
2023-04-05T08:20:15.561Z,810.96
2023-04-05T08:21:15.520Z,810.99
2023-04-05T08:22:15.500Z,811.00
2023-04-05T08:23:15.502Z,810.97
2023-04-05T08:24:15.574Z,811.00
2023-04-05T08:25:15.515Z,810.94
2023-04-05T08:26:15.540Z,811.01
2023-04-05T08:27:15.530Z,810.99
2023-04-05T08:28:15.531Z,811.00
2023-04-05T08:29:15.551Z,810.99
2023-04-05T08:30:15.518Z,811.02
2023-04-05T08:31:15.529Z,811.00
2023-04-05T08:32:15.640Z,811.03
2023-04-05T08:33:15.524Z,811.04
2023-04-05T08:34:15.536Z,811.07
2023-04-05T08:35:15.543Z,811.07
2023-04-05T08:36:15.558Z,811.05
2023-04-05T08:37:15.540Z,811.07
2023-04-05T08:38:15.542Z,811.06
2023-04-05T08:39:15.617Z,811.02
2023-04-05T08:40:15.568Z,811.06
2023-04-05T08:41:15.553Z,811.09
2023-04-05T08:42:15.560Z,811.11
2023-04-05T08:43:15.604Z,811.10
2023-04-05T08:44:15.557Z,811.10
2023-04-05T08:45:15.581Z,811.09
2023-04-05T08:46:15.633Z,811.10
2023-04-05T08:47:15.569Z,811.08
2023-04-05T08:48:15.582Z,811.15
2023-04-05T08:49:15.596Z,811.15
2023-04-05T08:50:15.658Z,811.13
2023-04-05T08:51:15.585Z,811.16
2023-04-05T08:52:15.599Z,811.16
2023-04-05T08:53:15.589Z,811.16
2023-04-05T08:54:15.592Z,811.17
2023-04-05T08:55:15.634Z,811.18
2023-04-05T08:56:15.682Z,811.19
2023-04-05T08:57:15.642Z,811.16
2023-04-05T08:58:15.608Z,811.16
2023-04-05T08:59:15.712Z,811.17
2023-04-05T09:00:15.609Z,811.23
2023-04-05T09:01:15.717Z,811.20
2023-04-05T09:02:15.739Z,811.19
2023-04-05T09:03:15.688Z,811.27
2023-04-05T09:04:15.630Z,811.22
2023-04-05T09:05:15.639Z,811.26
2023-04-05T09:06:15.672Z,811.19
2023-04-05T09:07:15.668Z,811.21
2023-04-05T09:08:15.670Z,811.23
2023-04-05T09:09:15.648Z,811.27
2023-04-05T09:10:15.675Z,811.29
2023-04-05T09:11:15.656Z,811.24
2023-04-05T09:12:15.684Z,811.21
2023-04-05T09:13:15.657Z,811.24
2023-04-05T09:14:15.676Z,811.21
2023-04-05T09:15:15.723Z,811.25
2023-04-05T09:16:15.692Z,811.26
2023-04-05T09:17:15.747Z,811.22
2023-04-05T09:18:25.388Z,811.22
2023-04-05T09:19:15.693Z,811.24
2023-04-05T09:20:15.690Z,811.26
2023-04-05T09:21:15.704Z,811.27
2023-04-05T09:22:15.696Z,811.28
2023-04-05T09:23:15.728Z,811.27
2023-04-05T09:24:15.717Z,811.27
2023-04-05T09:25:15.718Z,811.31
2023-04-05T09:26:15.716Z,811.29
2023-04-05T09:27:15.714Z,811.32
2023-04-05T09:28:15.744Z,811.24
2023-04-05T09:29:15.723Z,811.32
2023-04-05T09:30:15.737Z,811.28
2023-04-05T09:31:15.760Z,811.26
2023-04-05T09:32:15.778Z,811.24
2023-04-05T09:33:15.810Z,811.27
2023-04-05T09:34:15.749Z,811.30
2023-04-05T09:35:15.749Z,811.31
2023-04-05T09:36:15.775Z,811.37
2023-04-05T09:37:15.801Z,811.36
2023-04-05T09:38:15.767Z,811.33
2023-04-05T09:39:15.773Z,811.36
2023-04-05T09:40:15.775Z,811.35
2023-04-05T09:41:15.787Z,811.37
2023-04-05T09:42:15.905Z,811.36
2023-04-05T09:43:15.787Z,811.36
2023-04-05T09:44:15.830Z,811.33
2023-04-05T09:45:15.796Z,811.36
2023-04-05T09:46:15.821Z,811.37
2023-04-05T09:47:15.807Z,811.36
2023-04-05T09:48:15.864Z,811.39
2023-04-05T09:49:15.827Z,811.37
2023-04-05T09:50:15.835Z,811.43
2023-04-05T09:51:15.828Z,811.45
2023-04-05T09:52:15.840Z,811.38
2023-04-05T09:53:15.973Z,811.39
2023-04-05T09:54:15.842Z,811.38
2023-04-05T09:55:15.860Z,811.41
2023-04-05T09:56:15.851Z,811.39
2023-04-05T09:57:15.854Z,811.40
2023-04-05T09:58:15.870Z,811.38
2023-04-05T09:59:15.889Z,811.38
2023-04-05T10:00:15.912Z,811.42
2023-04-05T10:01:17.245Z,811.42
2023-04-05T10:02:16.043Z,811.43
2023-04-05T10:03:15.985Z,811.43
2023-04-05T10:04:15.941Z,811.43
2023-04-05T10:05:15.967Z,811.44
2023-04-05T10:06:15.919Z,811.43
2023-04-05T10:07:15.959Z,811.38
2023-04-05T10:08:15.914Z,811.41
2023-04-05T10:09:15.952Z,811.43
2023-04-05T10:10:15.928Z,811.45
2023-04-05T10:11:15.934Z,811.46
2023-04-05T10:12:15.939Z,811.44
2023-04-05T10:13:15.936Z,811.47
2023-04-05T10:14:15.958Z,811.45
2023-04-05T10:15:15.942Z,811.46
2023-04-05T10:16:16.183Z,811.49
2023-04-05T10:17:15.967Z,811.47
2023-04-05T10:18:16.007Z,811.45
2023-04-05T10:19:15.963Z,811.49
2023-04-05T10:20:15.972Z,811.50
2023-04-05T10:21:15.981Z,811.51
2023-04-05T10:22:15.980Z,811.43
2023-04-05T10:23:15.993Z,811.49
2023-04-05T10:24:15.993Z,811.48
2023-04-05T10:25:15.992Z,811.46
2023-04-05T10:26:16.012Z,811.41
2023-04-05T10:27:16.012Z,811.44
2023-04-05T10:28:16.031Z,811.43
2023-04-05T10:29:16.052Z,811.43
2023-04-05T10:30:16.024Z,811.39
2023-04-05T10:31:26.941Z,811.47
2023-04-05T10:32:16.128Z,811.41
2023-04-05T10:33:16.084Z,811.42
2023-04-05T10:34:16.044Z,811.41
2023-04-05T10:35:16.064Z,811.43
2023-04-05T10:36:16.134Z,811.45
2023-04-05T10:37:16.086Z,811.40
2023-04-05T10:38:16.077Z,811.44
2023-04-05T10:39:16.088Z,811.42
2023-04-05T10:40:16.075Z,811.41
2023-04-05T10:41:16.079Z,811.41
2023-04-05T10:42:16.083Z,811.41
2023-04-05T10:43:16.089Z,811.40
2023-04-05T10:44:25.853Z,811.47
2023-04-05T10:45:16.098Z,811.45
2023-04-05T10:46:16.242Z,811.43
2023-04-05T10:47:16.109Z,811.47
2023-04-05T10:48:16.199Z,811.44
2023-04-05T10:49:16.164Z,811.47
2023-04-05T10:50:16.179Z,811.44
2023-04-05T10:51:16.170Z,811.46
2023-04-05T10:52:16.175Z,811.48
2023-04-05T10:53:16.184Z,811.49
2023-04-05T10:54:16.146Z,811.43
2023-04-05T10:55:16.164Z,811.48
2023-04-05T10:56:16.154Z,811.44
2023-04-05T10:57:16.179Z,811.47
2023-04-05T10:58:16.219Z,811.45
2023-04-05T10:59:16.254Z,811.46
2023-04-05T11:00:16.196Z,811.48
2023-04-05T11:01:16.242Z,811.47
2023-04-05T11:02:16.231Z,811.49
2023-04-05T11:03:16.252Z,811.50
2023-04-05T11:04:16.278Z,811.42
2023-04-05T11:05:16.204Z,811.46
2023-04-05T11:06:16.218Z,811.44
2023-04-05T11:07:16.265Z,811.45
2023-04-05T11:08:16.227Z,811.49
2023-04-05T11:09:16.262Z,811.46
2023-04-05T11:10:16.243Z,811.47
2023-04-05T11:11:16.243Z,811.51
2023-04-05T11:12:16.250Z,811.45
2023-04-05T11:13:16.253Z,811.47
2023-04-05T11:14:16.263Z,811.45
2023-04-05T11:15:16.265Z,811.50
2023-04-05T11:16:16.295Z,811.44
2023-04-05T11:17:16.304Z,811.45
2023-04-05T11:18:16.295Z,811.44
2023-04-05T11:19:16.290Z,811.43
2023-04-05T11:20:16.319Z,811.48
2023-04-05T11:21:16.302Z,811.47
2023-04-05T11:22:16.310Z,811.43
2023-04-05T11:23:16.384Z,811.48
2023-04-05T11:24:16.322Z,811.50
2023-04-05T11:25:16.338Z,811.46
2023-04-05T11:26:16.333Z,811.46
2023-04-05T11:27:16.341Z,811.47
2023-04-05T11:28:16.351Z,811.49
2023-04-05T11:29:16.360Z,811.57
2023-04-05T11:30:16.369Z,811.49
2023-04-05T11:31:16.391Z,811.47
2023-04-05T11:32:16.373Z,811.45
2023-04-05T11:33:16.385Z,811.49
2023-04-05T11:34:16.391Z,811.48
2023-04-05T11:35:16.393Z,811.47
2023-04-05T11:36:16.433Z,811.48
2023-04-05T11:37:16.400Z,811.48
2023-04-05T11:38:16.420Z,811.53
2023-04-05T11:39:16.421Z,811.45
2023-04-05T11:40:16.440Z,811.49
2023-04-05T11:41:16.428Z,811.45
2023-04-05T11:42:16.442Z,811.40
2023-04-05T11:43:16.442Z,811.47
2023-04-05T11:44:16.458Z,811.46
2023-04-05T11:45:16.463Z,811.48
2023-04-05T11:46:16.552Z,811.42
2023-04-05T11:47:16.467Z,811.46
2023-04-05T11:48:16.480Z,811.51
2023-04-05T11:49:16.480Z,811.49
2023-04-05T11:50:16.489Z,811.50
2023-04-05T11:51:16.495Z,811.52
2023-04-05T11:52:16.571Z,811.51
2023-04-05T11:53:16.516Z,811.55
2023-04-05T11:54:16.519Z,811.51
2023-04-05T11:55:16.518Z,811.44
2023-04-05T11:56:16.545Z,811.56
2023-04-05T11:57:16.530Z,811.50
2023-04-05T11:58:16.548Z,811.61
2023-04-05T11:59:16.603Z,811.60
2023-04-05T12:00:16.556Z,811.54
2023-04-05T12:01:16.566Z,811.49
2023-04-05T12:02:16.601Z,811.58
2023-04-05T12:03:16.708Z,811.55
2023-04-05T12:04:16.579Z,811.57
2023-04-05T12:05:16.774Z,811.50
2023-04-05T12:06:16.598Z,811.56
2023-04-05T12:07:16.617Z,811.59
2023-04-05T12:08:16.636Z,811.53
2023-04-05T12:09:16.612Z,811.57
2023-04-05T12:10:16.632Z,811.59
2023-04-05T12:11:16.630Z,811.53
2023-04-05T12:12:16.638Z,811.57
2023-04-05T12:13:16.644Z,811.63
2023-04-05T12:14:16.654Z,811.59
2023-04-05T12:15:16.661Z,811.52
2023-04-05T12:16:16.718Z,811.49
2023-04-05T12:17:16.671Z,811.55
2023-04-05T12:18:16.686Z,811.53
2023-04-05T12:19:16.699Z,811.57
2023-04-05T12:20:16.707Z,811.52
2023-04-05T12:21:16.728Z,811.46
2023-04-05T12:22:16.709Z,811.54
2023-04-05T12:23:16.712Z,811.50
2023-04-05T12:24:16.748Z,811.61
2023-04-05T12:25:16.727Z,811.53
2023-04-05T12:26:16.742Z,811.60
2023-04-05T12:27:16.752Z,811.53
2023-04-05T12:28:16.766Z,811.52